createdAt,value
2018-09-05T00:01:02.318Z,18.00
2018-09-05T00:03:31.754Z,17.57
2018-09-05T00:06:01.388Z,17.73
2018-09-05T00:08:30.768Z,16.03
2018-09-05T00:11:00.073Z,16.77
2018-09-05T00:13:29.426Z,18.57
2018-09-05T00:15:58.847Z,20.37
2018-09-05T00:18:28.177Z,19.00
2018-09-05T00:20:58.445Z,18.37
2018-09-05T00:23:28.897Z,17.73
2018-09-05T00:25:58.479Z,17.47
2018-09-05T00:28:28.045Z,20.03
2018-09-05T00:30:57.376Z,19.57
2018-09-05T00:33:27.089Z,17.63
2018-09-05T00:35:57.479Z,18.40
2018-09-05T00:38:26.816Z,21.30
2018-09-05T00:40:56.387Z,17.77
2018-09-05T00:43:25.847Z,18.97
2018-09-05T00:45:56.044Z,25.43
2018-09-05T00:48:25.500Z,20.67
2018-09-05T00:50:55.011Z,22.77
2018-09-05T00:53:29.225Z,18.17
2018-09-05T00:55:59.333Z,17.70
2018-09-05T00:58:28.979Z,17.67
2018-09-05T01:00:58.219Z,17.90
2018-09-05T01:03:27.587Z,18.90
2018-09-05T01:05:57.293Z,16.57
2018-09-05T01:08:26.659Z,24.40
2018-09-05T01:10:56.304Z,22.73
2018-09-05T01:13:25.750Z,23.07
2018-09-05T01:15:55.871Z,22.20
2018-09-05T01:18:25.449Z,20.20
2018-09-05T01:20:55.015Z,18.80
2018-09-05T01:23:24.318Z,20.80
2018-09-05T01:25:53.983Z,24.00
2018-09-05T01:28:23.439Z,21.57
2018-09-05T01:30:52.939Z,19.00
2018-09-05T01:33:22.583Z,21.57
2018-09-05T01:35:56.437Z,21.83
2018-09-05T01:38:25.573Z,19.87
2018-09-05T01:40:54.857Z,23.17
2018-09-05T01:43:24.181Z,25.60
2018-09-05T01:45:53.627Z,23.90
2018-09-05T01:48:23.086Z,27.03
2018-09-05T01:50:52.252Z,21.10
2018-09-05T01:53:22.692Z,21.27
2018-09-05T01:55:52.283Z,20.30
2018-09-05T01:58:23.594Z,21.80
2018-09-05T02:00:53.701Z,21.37
2018-09-05T02:03:22.647Z,19.97
2018-09-05T02:05:52.151Z,21.37
2018-09-05T02:08:21.575Z,24.20
2018-09-05T02:10:50.727Z,23.97
2018-09-05T02:13:20.055Z,27.00
2018-09-05T02:15:49.652Z,27.97
2018-09-05T02:18:19.182Z,20.43
2018-09-05T02:20:49.634Z,21.03
2018-09-05T02:23:19.002Z,22.87
2018-09-05T02:25:48.316Z,22.87
2018-09-05T02:28:17.784Z,19.23
2018-09-05T02:30:47.168Z,25.43
2018-09-05T02:33:16.749Z,26.87
2018-09-05T02:35:46.325Z,26.10
2018-09-05T02:38:15.956Z,24.77
2018-09-05T02:40:46.277Z,28.33
2018-09-05T02:43:20.220Z,28.70
2018-09-05T02:45:49.864Z,27.77
2018-09-05T02:48:20.255Z,26.27
2018-09-05T02:50:49.906Z,31.20
2018-09-05T02:53:19.493Z,33.77
2018-09-05T02:55:54.397Z,29.43
2018-09-05T02:58:24.455Z,32.33
2018-09-05T03:00:53.811Z,29.23
2018-09-05T03:03:23.143Z,33.53
2018-09-05T03:05:52.603Z,30.27
2018-09-05T03:08:22.397Z,33.17
2018-09-05T03:10:51.751Z,31.90
2018-09-05T03:13:21.501Z,26.90
2018-09-05T03:15:50.944Z,29.30
2018-09-05T03:18:20.582Z,28.77
2018-09-05T03:20:50.174Z,33.93
2018-09-05T03:23:19.829Z,28.17
2018-09-05T03:25:49.419Z,26.47
2018-09-05T03:28:18.681Z,26.13
2018-09-05T03:30:47.972Z,25.53
2018-09-05T03:33:17.236Z,27.07
2018-09-05T03:35:47.054Z,26.13
2018-09-05T03:38:16.361Z,29.83
2018-09-05T03:40:45.802Z,32.33
2018-09-05T03:43:15.139Z,29.73
2018-09-05T03:45:44.477Z,28.63
2018-09-05T03:48:17.053Z,29.37
2018-09-05T03:50:46.404Z,30.60
2018-09-05T03:53:16.151Z,30.90
2018-09-05T03:55:45.540Z,27.47
2018-09-05T03:58:14.778Z,34.80
2018-09-05T04:00:44.252Z,27.37
2018-09-05T04:03:13.630Z,28.10
2018-09-05T04:05:43.206Z,32.73
2018-09-05T04:08:12.612Z,29.73
2018-09-05T04:10:41.996Z,30.23
2018-09-05T04:13:11.366Z,30.27
2018-09-05T04:15:40.687Z,26.30
2018-09-05T04:18:10.445Z,33.47
2018-09-05T04:20:39.782Z,32.63
2018-09-05T04:23:09.184Z,30.70
2018-09-05T04:25:38.616Z,31.13
2018-09-05T04:28:07.967Z,30.87
2018-09-05T04:30:37.336Z,30.87
2018-09-05T04:33:06.802Z,30.60
2018-09-05T04:35:36.018Z,31.23
2018-09-05T04:38:05.274Z,34.70
2018-09-05T04:40:34.976Z,32.47
2018-09-05T04:43:04.522Z,32.27
2018-09-05T04:45:33.728Z,35.67
2018-09-05T04:48:02.780Z,30.33
2018-09-05T04:50:32.290Z,32.63
2018-09-05T04:53:01.423Z,31.40
2018-09-05T04:55:30.698Z,31.60
2018-09-05T04:58:00.178Z,29.73
2018-09-05T05:00:29.598Z,30.77
2018-09-05T05:02:59.150Z,27.57
2018-09-05T05:05:28.629Z,27.97
2018-09-05T05:07:58.129Z,24.33
2018-09-05T05:10:27.822Z,22.73
2018-09-05T05:12:58.147Z,24.67
2018-09-05T05:15:28.173Z,24.33
2018-09-05T05:17:57.478Z,22.83
2018-09-05T05:20:29.862Z,32.23
2018-09-05T05:22:59.206Z,23.17
2018-09-05T05:25:28.577Z,23.30
2018-09-05T05:27:58.948Z,24.53
2018-09-05T05:30:28.307Z,20.60
2018-09-05T05:32:57.580Z,22.00
2018-09-05T05:35:26.961Z,21.70
2018-09-05T05:37:56.368Z,22.53
2018-09-05T05:40:25.924Z,24.17
2018-09-05T05:42:55.368Z,20.70
2018-09-05T05:45:24.898Z,21.33
2018-09-05T05:48:01.954Z,22.70
2018-09-05T05:50:31.598Z,21.73
2018-09-05T05:53:01.101Z,19.93
2018-09-05T05:55:31.148Z,22.20
2018-09-05T05:58:00.691Z,22.23
2018-09-05T06:00:30.170Z,20.30
2018-09-05T06:03:00.176Z,21.30
2018-09-05T06:05:31.359Z,21.47
2018-09-05T06:08:01.851Z,25.30
2018-09-05T06:10:31.318Z,24.47
2018-09-05T06:13:01.004Z,24.50
2018-09-05T06:15:32.723Z,22.77
2018-09-05T06:18:02.071Z,24.13
2018-09-05T06:20:32.453Z,24.60
2018-09-05T06:23:08.199Z,19.87
2018-09-05T06:25:39.634Z,24.50
2018-09-05T06:28:09.086Z,21.80
2018-09-05T06:30:38.534Z,24.33
2018-09-05T06:33:08.716Z,22.80
2018-09-05T06:35:38.075Z,23.67
2018-09-05T06:38:07.506Z,25.33
2018-09-05T06:40:37.906Z,23.57
2018-09-05T06:43:07.653Z,20.00
2018-09-05T06:45:37.362Z,21.37
2018-09-05T06:48:06.770Z,27.47
2018-09-05T06:50:36.224Z,24.13
2018-09-05T06:53:06.118Z,22.80
2018-09-05T06:55:35.332Z,25.73
2018-09-05T06:58:04.923Z,25.60
2018-09-05T07:00:34.569Z,23.97
2018-09-05T07:03:04.179Z,23.40
2018-09-05T07:05:33.703Z,26.67
2018-09-05T07:08:03.079Z,27.43
2018-09-05T07:10:33.147Z,26.93
2018-09-05T07:16:02.401Z,28.97
2018-09-05T07:18:31.921Z,28.00
2018-09-05T07:21:06.171Z,29.60
2018-09-05T07:23:31.892Z,27.13
2018-09-05T07:26:01.315Z,25.97
2018-09-05T07:28:30.812Z,26.73
2018-09-05T07:31:00.667Z,26.93
2018-09-05T07:33:30.203Z,31.07
2018-09-05T07:35:59.630Z,29.40
2018-09-05T07:38:29.101Z,29.97
2018-09-05T07:40:58.629Z,31.13
2018-09-05T07:43:27.946Z,30.20
2018-09-05T07:45:57.418Z,27.10
2018-09-05T07:48:27.139Z,34.47
2018-09-05T07:50:56.532Z,30.47
2018-09-05T07:53:27.365Z,33.43
2018-09-05T07:55:56.654Z,35.63
2018-09-05T07:58:26.256Z,34.77
2018-09-05T08:00:57.711Z,36.37
2018-09-05T08:03:27.579Z,39.17
2018-09-05T08:05:57.147Z,39.87
2018-09-05T08:08:26.491Z,38.40
2018-09-05T08:10:55.934Z,37.77
2018-09-05T08:13:26.273Z,41.00
2018-09-05T08:15:55.865Z,44.70
2018-09-05T08:18:25.362Z,43.23
2018-09-05T08:20:55.004Z,46.57
2018-09-05T08:23:24.671Z,50.73
2018-09-05T08:25:55.024Z,56.87
2018-09-05T08:28:25.397Z,39.43
2018-09-05T08:30:54.952Z,46.87
2018-09-05T08:33:25.088Z,49.57
2018-09-05T08:35:54.885Z,50.73
2018-09-05T08:38:24.106Z,53.47
2018-09-05T08:40:53.693Z,45.70
2018-09-05T08:43:23.322Z,45.47
2018-09-05T08:45:53.244Z,53.97
2018-09-05T08:48:22.575Z,58.73
2018-09-05T08:50:53.090Z,48.80
2018-09-05T08:53:23.168Z,51.33
2018-09-05T08:55:52.477Z,47.30
2018-09-05T08:58:22.194Z,50.03
2018-09-05T09:00:51.595Z,43.60
2018-09-05T09:03:22.893Z,43.33
2018-09-05T09:05:54.991Z,41.37
2018-09-05T09:08:24.685Z,35.17
2018-09-05T09:10:55.734Z,40.63
2018-09-05T09:13:26.363Z,42.63
2018-09-05T09:15:55.882Z,46.80
2018-09-05T09:18:26.502Z,40.60
2018-09-05T09:20:56.425Z,44.63
2018-09-05T09:23:29.944Z,47.43
2018-09-05T09:26:00.055Z,39.87
2018-09-05T09:28:29.129Z,40.23
2018-09-05T09:30:58.616Z,44.03
2018-09-05T09:33:28.175Z,46.43
2018-09-05T09:35:58.460Z,49.17
2018-09-05T09:38:27.817Z,55.83
2018-09-05T09:40:58.301Z,42.23
2018-09-05T09:43:29.422Z,45.70
2018-09-05T09:45:58.827Z,50.50
2018-09-05T09:48:31.034Z,55.07
2018-09-05T09:51:01.524Z,44.87
2018-09-05T09:53:30.906Z,38.23
2018-09-05T09:56:00.575Z,40.03
2018-09-05T09:58:30.286Z,46.40
2018-09-05T10:01:05.038Z,35.70
2018-09-05T10:03:40.039Z,35.10
2018-09-05T10:06:16.066Z,44.67
2018-09-05T10:08:51.621Z,45.37
2018-09-05T10:11:25.089Z,52.13
2018-09-05T10:13:59.779Z,48.73
2018-09-05T10:16:34.828Z,42.07
2018-09-05T10:19:08.313Z,35.40
2018-09-05T10:21:38.406Z,37.73
2018-09-05T10:24:07.810Z,37.43
2018-09-05T10:26:38.732Z,39.23
2018-09-05T10:29:08.760Z,38.40
2018-09-05T10:31:37.983Z,42.70
2018-09-05T10:34:22.835Z,35.50
2018-09-05T10:37:07.356Z,28.60
2018-09-05T10:39:40.259Z,29.67
2018-09-05T10:42:18.087Z,35.57
2018-09-05T10:44:47.586Z,32.43
2018-09-05T10:47:19.458Z,27.47
2018-09-05T10:49:49.159Z,25.23
2018-09-05T10:52:19.633Z,20.70
2018-09-05T10:54:49.199Z,23.63
2018-09-05T10:57:19.010Z,22.73
2018-09-05T10:59:48.512Z,23.20
2018-09-05T11:02:18.108Z,20.13
2018-09-05T11:04:48.105Z,21.97
2018-09-05T11:07:18.254Z,22.33
2018-09-05T11:09:48.715Z,23.63
2018-09-05T11:12:18.030Z,21.03
2018-09-05T11:14:47.747Z,21.03
2018-09-05T11:17:17.125Z,26.43
2018-09-05T11:19:46.529Z,17.33
2018-09-05T11:22:16.258Z,23.90
2018-09-05T11:24:45.924Z,22.60
2018-09-05T11:27:16.009Z,24.10
2018-09-05T11:29:45.641Z,25.90
2018-09-05T11:32:15.241Z,23.27
2018-09-05T11:34:44.789Z,19.87
2018-09-05T11:37:14.225Z,22.97
2018-09-05T11:39:43.647Z,24.40
2018-09-05T11:42:15.113Z,21.47
2018-09-05T11:44:44.466Z,24.07
2018-09-05T11:47:27.854Z,19.93
2018-09-05T11:49:57.003Z,20.33
2018-09-05T11:52:34.338Z,19.93
2018-09-05T11:55:03.369Z,20.70
2018-09-05T11:57:32.400Z,20.03
2018-09-05T12:00:01.534Z,21.47
2018-09-05T12:02:30.640Z,20.07
2018-09-05T12:05:04.381Z,19.30
2018-09-05T12:07:35.338Z,22.13
2018-09-05T12:10:05.119Z,19.53
2018-09-05T12:12:34.500Z,20.73
2018-09-05T12:15:03.871Z,19.13
2018-09-05T12:17:33.274Z,21.53
2018-09-05T12:20:02.735Z,19.53
2018-09-05T12:22:32.320Z,20.50
2018-09-05T12:25:01.902Z,18.83
2018-09-05T12:27:31.238Z,19.63
2018-09-05T12:30:01.036Z,18.40
2018-09-05T12:32:30.734Z,16.17
2018-09-05T12:35:00.162Z,16.93
2018-09-05T12:37:29.746Z,14.87
2018-09-05T12:40:00.164Z,16.47
2018-09-05T12:42:29.479Z,15.37
2018-09-05T12:44:59.287Z,19.20
2018-09-05T12:47:28.669Z,15.43
2018-09-05T12:49:58.068Z,15.07
2018-09-05T12:52:27.392Z,18.07
2018-09-05T12:54:56.843Z,15.43
2018-09-05T12:57:28.355Z,13.93
2018-09-05T12:59:57.831Z,14.37
2018-09-05T13:02:27.452Z,14.87
2018-09-05T13:04:57.794Z,18.33
2018-09-05T13:07:27.329Z,14.60
2018-09-05T13:09:56.880Z,17.20
2018-09-05T13:12:37.443Z,14.73
2018-09-05T13:15:14.935Z,15.93
2018-09-05T13:17:45.283Z,13.87
2018-09-05T13:20:14.852Z,14.43
2018-09-05T13:22:44.388Z,16.67
2018-09-05T13:25:13.963Z,15.03
2018-09-05T13:27:43.533Z,14.87
2018-09-05T13:30:14.277Z,15.10
2018-09-05T13:32:43.742Z,14.37
2018-09-05T13:35:13.191Z,13.67
2018-09-05T13:37:42.547Z,15.93
2018-09-05T13:40:11.912Z,17.30
2018-09-05T13:42:41.248Z,18.70
2018-09-05T13:45:10.839Z,16.33
2018-09-05T13:47:40.324Z,14.00
2018-09-05T13:50:10.038Z,14.37
2018-09-05T13:52:39.528Z,16.53
2018-09-05T13:55:08.974Z,13.27
2018-09-05T13:57:40.096Z,13.80
2018-09-05T14:00:13.550Z,14.43
2018-09-05T14:02:46.710Z,18.93
2018-09-05T14:05:16.936Z,15.40
2018-09-05T14:07:46.338Z,13.93
2018-09-05T14:10:16.905Z,16.07
2018-09-05T14:12:47.069Z,14.27
2018-09-05T14:15:16.608Z,13.83
2018-09-05T14:17:46.564Z,15.70
2018-09-05T14:20:16.164Z,13.67
2018-09-05T14:22:45.975Z,15.47
2018-09-05T14:25:35.675Z,14.93
2018-09-05T14:28:07.419Z,13.00
2018-09-05T14:30:37.394Z,13.27
2018-09-05T14:33:08.641Z,12.50
2018-09-05T14:35:38.235Z,14.83
2018-09-05T14:38:07.721Z,13.27
2018-09-05T14:40:37.065Z,15.57
2018-09-05T14:43:06.618Z,14.23
2018-09-05T14:45:36.048Z,14.90
2018-09-05T14:48:13.171Z,13.83
2018-09-05T14:50:43.236Z,12.70
2018-09-05T14:53:12.840Z,12.30
2018-09-05T14:55:42.884Z,11.97
2018-09-05T14:58:12.570Z,12.00
2018-09-05T15:00:42.307Z,11.63
2018-09-05T15:03:11.842Z,12.17
2018-09-05T15:05:41.413Z,12.03
2018-09-05T15:08:12.361Z,15.47
2018-09-05T15:10:41.969Z,12.67
2018-09-05T15:13:11.951Z,12.80
2018-09-05T15:15:50.987Z,13.63
2018-09-05T15:18:22.289Z,12.13
2018-09-05T15:21:03.864Z,13.03
2018-09-05T15:23:36.897Z,12.30
2018-09-05T15:26:06.767Z,12.37
2018-09-05T15:28:39.196Z,12.23
2018-09-05T15:31:12.299Z,13.07
2018-09-05T15:33:44.603Z,12.50
2018-09-05T15:36:14.636Z,12.33
2018-09-05T15:38:44.831Z,15.40
2018-09-05T15:41:14.573Z,15.30
2018-09-05T15:43:44.349Z,14.30
2018-09-05T15:46:14.059Z,12.53
2018-09-05T15:48:43.943Z,13.73
2018-09-05T15:51:22.325Z,12.53
2018-09-05T15:54:02.182Z,13.33
2018-09-05T15:56:45.222Z,12.13
2018-09-05T15:59:23.083Z,13.47
2018-09-05T16:02:05.003Z,12.63
2018-09-05T16:04:36.077Z,12.10
2018-09-05T16:07:07.014Z,13.00
2018-09-05T16:09:36.831Z,13.67
2018-09-05T16:12:24.872Z,12.00
2018-09-05T16:15:01.522Z,12.37
2018-09-05T16:17:37.725Z,13.93
2018-09-05T16:20:09.157Z,12.50
2018-09-05T16:22:38.879Z,12.50
2018-09-05T16:25:11.583Z,14.40
2018-09-05T16:27:42.507Z,14.03
2018-09-05T16:30:13.651Z,13.37
2018-09-05T16:32:44.374Z,11.90
2018-09-05T16:35:15.305Z,12.70
2018-09-05T16:37:47.197Z,13.20
2018-09-05T16:40:17.230Z,13.03
2018-09-05T16:42:47.332Z,13.73
2018-09-05T16:45:19.142Z,12.33
2018-09-05T16:47:50.397Z,12.63
2018-09-05T16:50:21.322Z,13.43
2018-09-05T16:52:51.603Z,13.33
2018-09-05T16:55:22.925Z,13.00
2018-09-05T16:57:53.130Z,15.67
2018-09-05T17:00:23.118Z,14.13
2018-09-05T17:02:54.086Z,12.47
2018-09-05T17:05:24.706Z,14.40
2018-09-05T17:07:56.932Z,13.00
2018-09-05T17:10:38.055Z,13.90
2018-09-05T17:13:09.051Z,14.23
2018-09-05T17:15:40.620Z,14.13
2018-09-05T17:18:11.478Z,13.37
2018-09-05T17:20:46.278Z,13.80
2018-09-05T17:23:21.009Z,15.23
2018-09-05T17:25:51.205Z,13.27
2018-09-05T17:28:24.428Z,13.83
2018-09-05T17:30:55.871Z,16.23
2018-09-05T17:33:26.012Z,13.57
2018-09-05T17:36:01.951Z,16.30
2018-09-05T17:38:31.763Z,14.23
2018-09-05T17:41:01.938Z,16.90
2018-09-05T17:43:32.744Z,13.93
2018-09-05T17:46:02.713Z,13.83
2018-09-05T17:48:33.966Z,14.53
2018-09-05T17:51:03.888Z,14.23
2018-09-05T17:53:38.989Z,16.23
2018-09-05T17:56:10.555Z,15.13
2018-09-05T17:58:45.005Z,14.37
2018-09-05T18:01:18.239Z,15.47
2018-09-05T18:03:50.431Z,15.60
2018-09-05T18:06:22.136Z,14.73
2018-09-05T18:08:53.427Z,17.27
2018-09-05T18:11:24.179Z,15.30
2018-09-05T18:13:54.110Z,18.73
2018-09-05T18:16:27.863Z,23.77
2018-09-05T18:18:58.800Z,15.97
2018-09-05T18:21:34.275Z,16.40
2018-09-05T18:24:07.630Z,17.47
2018-09-05T18:26:39.075Z,16.93
2018-09-05T18:29:09.984Z,18.07
2018-09-05T18:31:41.566Z,16.67
2018-09-05T18:34:13.060Z,17.03
2018-09-05T18:36:44.663Z,18.17
2018-09-05T18:39:16.222Z,20.93
2018-09-05T18:41:47.515Z,18.03
2018-09-05T18:44:18.103Z,19.50
2018-09-05T18:46:52.240Z,18.13
2018-09-05T18:49:23.186Z,18.53
2018-09-05T18:51:54.417Z,18.43
2018-09-05T18:54:25.953Z,21.43
2018-09-05T18:56:57.045Z,20.07
2018-09-05T18:59:32.704Z,18.33
2018-09-05T19:04:41.752Z,18.37
2018-09-05T19:07:13.873Z,17.50
2018-09-05T19:09:46.262Z,17.80
2018-09-05T19:12:39.163Z,19.80
2018-09-05T19:15:15.688Z,17.93
2018-09-05T19:17:57.225Z,30.50
2018-09-05T19:20:42.449Z,17.03
2018-09-05T19:23:18.146Z,19.77
2018-09-05T19:25:48.487Z,19.43
2018-09-05T19:28:22.722Z,18.30
2018-09-05T19:30:53.122Z,21.63
2018-09-05T19:33:31.536Z,19.97
2018-09-05T19:36:03.127Z,24.73
2018-09-05T19:38:35.497Z,18.03
2018-09-05T19:41:07.032Z,22.87
2018-09-05T19:43:38.246Z,18.63
2018-09-05T19:46:09.392Z,19.90
2018-09-05T19:48:41.240Z,20.20
2018-09-05T19:51:11.947Z,20.60
2018-09-05T19:53:42.823Z,25.23
2018-09-05T19:56:13.059Z,19.07
2018-09-05T19:58:43.267Z,20.83
2018-09-05T20:01:14.493Z,21.93
2018-09-05T20:03:45.464Z,21.40
2018-09-05T20:06:16.305Z,25.63
2018-09-05T20:08:47.417Z,19.23
2018-09-05T20:11:18.837Z,19.87
2018-09-05T20:13:48.684Z,20.73
2018-09-05T20:16:20.147Z,22.87
2018-09-05T20:18:51.162Z,20.17
2018-09-05T20:21:22.624Z,23.43
2018-09-05T20:23:53.870Z,21.30
2018-09-05T20:26:24.787Z,20.33
2018-09-05T20:28:55.528Z,19.37
2018-09-05T20:31:26.136Z,21.00
2018-09-05T20:33:56.606Z,20.60
2018-09-05T20:36:26.574Z,25.97
2018-09-05T20:38:57.064Z,20.40
2018-09-05T20:41:28.090Z,24.47
2018-09-05T20:43:58.156Z,26.30
2018-09-05T20:46:27.916Z,22.53
2018-09-05T20:48:57.623Z,24.33
2018-09-05T20:51:28.297Z,27.00
2018-09-05T20:53:59.078Z,25.63
2018-09-05T20:56:29.304Z,26.00
2018-09-05T20:59:00.520Z,25.70
2018-09-05T21:01:30.216Z,25.03
2018-09-05T21:04:00.021Z,23.67
2018-09-05T21:06:29.922Z,31.83
2018-09-05T21:09:01.872Z,29.23
2018-09-05T21:11:32.259Z,22.33
2018-09-05T21:14:03.530Z,27.57
2018-09-05T21:16:34.228Z,23.83
2018-09-05T21:19:04.136Z,23.07
2018-09-05T21:21:35.401Z,27.33
2018-09-05T21:24:07.415Z,27.17
2018-09-05T21:26:37.220Z,27.83
2018-09-05T21:29:06.950Z,25.27
2018-09-05T21:31:37.307Z,28.70
2018-09-05T21:34:07.356Z,26.50
2018-09-05T21:36:36.886Z,23.80
2018-09-05T21:39:08.860Z,24.13
2018-09-05T21:41:38.439Z,24.00
2018-09-05T21:44:08.038Z,24.37
2018-09-05T21:46:37.521Z,24.40
2018-09-05T21:49:07.255Z,25.33
2018-09-05T21:51:36.696Z,26.63
2018-09-05T21:54:06.062Z,22.50
2018-09-05T21:56:35.594Z,23.23
2018-09-05T21:59:05.284Z,25.10
2018-09-05T22:01:34.789Z,26.27
2018-09-05T22:04:04.402Z,22.23
2018-09-05T22:06:34.003Z,24.13
2018-09-05T22:09:03.687Z,23.83
2018-09-05T22:11:33.643Z,25.07
2018-09-05T22:14:03.219Z,29.03
2018-09-05T22:16:33.449Z,25.70
2018-09-05T22:19:03.136Z,27.90
2018-09-05T22:21:32.773Z,25.17
2018-09-05T22:24:02.760Z,22.60
2018-09-05T22:26:32.903Z,25.43
2018-09-05T22:29:03.239Z,28.53
2018-09-05T22:31:32.813Z,25.63
2018-09-05T22:34:01.923Z,25.43
2018-09-05T22:36:31.351Z,23.93
2018-09-05T22:39:01.235Z,23.87
2018-09-05T22:41:30.659Z,23.63
2018-09-05T22:44:11.824Z,23.17
2018-09-05T22:46:52.609Z,27.47
2018-09-05T22:51:51.926Z,24.47
2018-09-05T22:56:37.961Z,26.43
2018-09-05T23:01:22.869Z,26.50
2018-09-05T23:05:15.557Z,26.43
2018-09-05T23:08:49.133Z,25.97
2018-09-05T23:11:29.146Z,31.37
2018-09-05T23:14:09.172Z,24.87
2018-09-05T23:18:58.826Z,27.70
2018-09-05T23:21:30.378Z,29.43
2018-09-05T23:24:03.810Z,24.03
2018-09-05T23:26:33.080Z,24.77
2018-09-05T23:29:02.944Z,25.70
2018-09-05T23:31:32.506Z,24.10
2018-09-05T23:34:01.906Z,26.17
2018-09-05T23:36:31.208Z,22.93
2018-09-05T23:39:00.563Z,25.70
2018-09-05T23:41:29.995Z,26.07
2018-09-05T23:43:59.552Z,23.13
2018-09-05T23:46:28.943Z,25.87
2018-09-05T23:48:58.323Z,23.73
2018-09-05T23:51:27.909Z,23.07
2018-09-05T23:53:57.263Z,23.43
2018-09-05T23:56:27.514Z,22.37
2018-09-05T23:58:56.923Z,22.43
